createdAt,value
2023-01-09T00:01:38.968Z,94.25
2023-01-09T00:04:06.889Z,94.27
2023-01-09T00:06:36.151Z,94.02
2023-01-09T00:09:04.098Z,94.06
2023-01-09T00:11:31.791Z,94.10
2023-01-09T00:13:59.754Z,94.08
2023-01-09T00:16:27.321Z,94.08
2023-01-09T00:18:54.844Z,94.64
2023-01-09T00:21:22.335Z,95.11
2023-01-09T00:23:51.168Z,94.47
2023-01-09T00:26:20.193Z,95.95
2023-01-09T00:28:48.129Z,96.26
2023-01-09T00:31:16.051Z,96.40
2023-01-09T00:33:45.667Z,96.82
2023-01-09T00:36:13.545Z,97.71
2023-01-09T00:38:41.450Z,98.00
2023-01-09T00:41:12.636Z,97.91
2023-01-09T00:43:42.961Z,98.19
2023-01-09T00:46:10.945Z,99.35
2023-01-09T00:48:39.931Z,99.61
2023-01-09T00:51:08.107Z,99.10
2023-01-09T00:53:37.858Z,99.26
2023-01-09T00:56:09.118Z,99.20
2023-01-09T00:58:38.448Z,99.23
2023-01-09T01:01:06.402Z,99.03
2023-01-09T01:03:33.971Z,98.72
2023-01-09T01:06:18.993Z,98.88
2023-01-09T01:08:46.774Z,99.10
2023-01-09T01:11:14.544Z,99.75
2023-01-09T01:13:43.661Z,100.00
2023-01-09T01:16:13.283Z,100.00
2023-01-09T01:18:41.599Z,100.00
2023-01-09T01:21:09.741Z,100.00
2023-01-09T01:23:38.150Z,100.00
2023-01-09T01:26:06.888Z,100.00
2023-01-09T01:28:34.795Z,100.00
2023-01-09T01:31:04.149Z,100.00
2023-01-09T01:33:32.481Z,100.00
2023-01-09T01:36:04.324Z,100.00
2023-01-09T01:38:32.759Z,100.00
2023-01-09T01:41:01.425Z,100.00
2023-01-09T02:38:09.559Z,100.00
2023-01-09T02:40:42.990Z,100.00
2023-01-09T02:43:43.433Z,100.00
2023-01-09T02:46:22.705Z,100.00
2023-01-09T02:48:55.439Z,100.00
2023-01-09T02:51:30.931Z,100.00
2023-01-09T02:54:07.322Z,100.00
2023-01-09T02:56:59.370Z,100.00
2023-01-09T02:59:32.983Z,100.00
2023-01-09T03:02:14.096Z,100.00
2023-01-09T03:04:47.814Z,100.00
2023-01-09T03:07:22.092Z,100.00
2023-01-09T03:09:51.746Z,100.00
2023-01-09T03:12:24.750Z,100.00
2023-01-09T03:14:54.697Z,100.00
2023-01-09T03:17:28.606Z,100.00
2023-01-09T03:19:58.009Z,100.00
2023-01-09T03:22:26.377Z,100.00
2023-01-09T03:24:54.767Z,100.00
2023-01-09T03:27:24.442Z,100.00
2023-01-09T03:29:53.456Z,100.00
2023-01-09T03:32:21.574Z,100.00
2023-01-09T03:34:49.587Z,100.00
2023-01-09T03:37:20.516Z,100.00
2023-01-09T03:39:51.030Z,100.00
2023-01-09T03:42:20.913Z,100.00
2023-01-09T03:44:52.059Z,100.00
2023-01-09T03:47:20.379Z,100.00
2023-01-09T03:49:48.529Z,100.00
2023-01-09T03:52:16.726Z,100.00
2023-01-09T03:54:44.846Z,100.00
2023-01-09T03:57:13.070Z,100.00
2023-01-09T03:59:41.239Z,100.00
2023-01-09T04:02:10.905Z,100.00
2023-01-09T04:04:42.305Z,100.00
2023-01-09T04:07:10.693Z,100.00
2023-01-09T04:09:38.791Z,100.00
2023-01-09T04:12:09.444Z,100.00
2023-01-09T04:14:40.265Z,100.00
2023-01-09T04:17:16.667Z,100.00
2023-01-09T04:19:45.031Z,100.00
2023-01-09T04:22:12.976Z,100.00
2023-01-09T04:24:40.901Z,100.00
2023-01-09T04:27:08.889Z,100.00
2023-01-09T04:29:37.004Z,100.00
2023-01-09T04:32:05.440Z,100.00
2023-01-09T04:34:35.088Z,100.00
2023-01-09T04:37:03.393Z,100.00
2023-01-09T04:39:31.856Z,100.00
2023-01-09T04:41:59.809Z,100.00
2023-01-09T04:44:27.619Z,100.00
2023-01-09T04:46:56.145Z,100.00
2023-01-09T04:49:23.985Z,100.00
2023-01-09T04:51:53.105Z,100.00
2023-01-09T04:54:20.978Z,100.00
2023-01-09T04:56:48.777Z,100.00
2023-01-09T04:59:16.477Z,100.00
2023-01-09T05:01:44.129Z,100.00
2023-01-09T05:04:12.996Z,100.00
2023-01-09T05:06:40.665Z,100.00
2023-01-09T05:09:09.562Z,100.00
2023-01-09T05:11:39.023Z,100.00
2023-01-09T05:14:06.560Z,100.00
2023-01-09T05:16:34.138Z,100.00
2023-01-09T05:19:01.709Z,100.00
2023-01-09T05:21:29.330Z,100.00
2023-01-09T05:23:56.870Z,100.00
2023-01-09T05:26:25.995Z,100.00
2023-01-09T05:28:54.073Z,100.00
2023-01-09T05:31:21.689Z,100.00
2023-01-09T05:33:49.353Z,100.00
2023-01-09T05:36:16.980Z,100.00
2023-01-09T05:38:44.576Z,100.00
2023-01-09T05:41:12.468Z,100.00
2023-01-09T05:43:41.389Z,100.00
2023-01-09T05:46:08.936Z,100.00
2023-01-09T05:48:37.717Z,100.00
2023-01-09T05:51:05.356Z,100.00
2023-01-09T05:53:32.971Z,100.00
2023-01-09T05:56:00.532Z,100.00
2023-01-09T05:58:28.087Z,100.00
2023-01-09T06:00:56.933Z,100.00
2023-01-09T06:03:24.475Z,100.00
2023-01-09T06:05:52.445Z,100.00
2023-01-09T06:08:19.941Z,100.00
2023-01-09T06:10:47.889Z,100.00
2023-01-09T06:13:15.362Z,100.00
2023-01-09T06:15:43.023Z,100.00
2023-01-09T06:18:11.863Z,100.00
2023-01-09T06:20:39.335Z,100.00
2023-01-09T06:23:06.824Z,100.00
2023-01-09T06:25:34.401Z,100.00
2023-01-09T06:28:01.959Z,100.00
2023-01-09T06:30:29.447Z,100.00
2023-01-09T06:32:56.920Z,100.00
2023-01-09T06:35:25.820Z,100.00
2023-01-09T06:37:53.282Z,100.00
2023-01-09T06:40:21.134Z,100.00
2023-01-09T06:42:49.641Z,100.00
2023-01-09T06:45:17.456Z,100.00
2023-01-09T06:47:45.013Z,100.00
2023-01-09T06:50:12.786Z,100.00
2023-01-09T06:52:41.584Z,100.00
2023-01-09T06:55:09.908Z,100.00
2023-01-09T06:57:37.545Z,100.00
2023-01-09T07:00:06.176Z,100.00
2023-01-09T07:02:33.789Z,100.00
2023-01-09T07:05:01.267Z,100.00
2023-01-09T07:07:28.743Z,100.00
2023-01-09T07:09:57.526Z,100.00
2023-01-09T07:12:25.086Z,100.00
2023-01-09T07:14:52.597Z,100.00
2023-01-09T07:17:20.026Z,100.00
2023-01-09T07:19:47.558Z,100.00
2023-01-09T07:22:15.095Z,100.00
2023-01-09T07:24:44.238Z,100.00
2023-01-09T07:27:13.047Z,100.00
2023-01-09T07:29:40.525Z,100.00
2023-01-09T07:32:08.094Z,100.00
2023-01-09T07:34:35.590Z,100.00
2023-01-09T07:37:03.044Z,100.00
2023-01-09T07:39:30.580Z,100.00
2023-01-09T07:41:58.059Z,100.00
2023-01-09T07:44:28.131Z,100.00
2023-01-09T07:46:55.595Z,100.00
2023-01-09T07:49:23.848Z,100.00
2023-01-09T07:51:52.422Z,100.00
2023-01-09T07:54:19.891Z,100.00
2023-01-09T07:56:47.500Z,100.00
2023-01-09T07:59:15.070Z,100.00
2023-01-09T08:01:44.125Z,100.00
2023-01-09T08:04:11.636Z,99.70
2023-01-09T08:06:39.158Z,100.00
2023-01-09T08:09:06.628Z,100.00
2023-01-09T08:11:35.293Z,100.00
2023-01-09T08:14:03.818Z,100.00
2023-01-09T08:16:31.286Z,100.00
2023-01-09T08:19:00.314Z,100.00
2023-01-09T08:21:27.757Z,99.97
2023-01-09T08:23:55.282Z,99.88
2023-01-09T08:26:22.988Z,100.00
2023-01-09T08:28:50.424Z,99.96
2023-01-09T08:31:17.984Z,100.00
2023-01-09T08:33:45.725Z,100.00
2023-01-09T08:36:14.731Z,100.00
2023-01-09T08:38:42.212Z,100.00
2023-01-09T08:41:23.659Z,100.00
2023-01-09T08:44:08.444Z,100.00
2023-01-09T08:46:54.146Z,100.00
2023-01-09T08:49:22.504Z,100.00
2023-01-09T08:51:51.286Z,100.00
2023-01-09T08:54:18.787Z,100.00
2023-01-09T08:56:46.243Z,100.00
2023-01-09T08:59:13.732Z,100.00
2023-01-09T09:01:41.338Z,100.00
2023-01-09T09:04:08.910Z,100.00
2023-01-09T09:06:36.580Z,100.00
2023-01-09T09:09:06.710Z,100.00
2023-01-09T09:11:35.941Z,100.00
2023-01-09T09:14:25.700Z,100.00
2023-01-09T09:16:53.315Z,100.00
2023-01-09T09:19:20.924Z,100.00
2023-01-09T09:21:48.496Z,100.00
2023-01-09T09:24:17.301Z,100.00
2023-01-09T09:26:44.929Z,100.00
2023-01-09T09:29:13.001Z,100.00
2023-01-09T09:31:40.490Z,100.00
2023-01-09T09:34:08.542Z,99.90
2023-01-09T09:36:36.089Z,99.69
2023-01-09T09:39:03.877Z,99.68
2023-01-09T09:42:01.802Z,99.31
2023-01-09T09:44:53.847Z,99.62
2023-01-09T09:47:32.572Z,100.00
2023-01-09T09:50:07.588Z,100.00
2023-01-09T09:52:40.527Z,100.00
2023-01-09T09:55:19.831Z,100.00
2023-01-09T09:57:49.469Z,99.97
2023-01-09T10:00:19.956Z,99.56
2023-01-09T10:02:51.682Z,99.07
2023-01-09T10:05:22.105Z,99.50
2023-01-09T10:07:51.391Z,100.00
2023-01-09T10:10:26.224Z,100.00
2023-01-09T10:12:57.072Z,99.90
2023-01-09T10:15:38.274Z,98.21
2023-01-09T10:18:14.400Z,97.90
2023-01-09T10:20:55.370Z,97.87
2023-01-09T10:23:38.705Z,97.63
2023-01-09T10:26:12.862Z,98.23
2023-01-09T10:29:06.831Z,97.37
2023-01-09T10:31:40.129Z,97.50
2023-01-09T10:34:15.411Z,96.28
2023-01-09T10:37:06.259Z,96.22
2023-01-09T10:39:39.385Z,95.47
2023-01-09T10:42:12.303Z,94.48
2023-01-09T10:44:47.002Z,94.15
2023-01-09T10:47:18.456Z,93.91
2023-01-09T10:49:47.216Z,92.44
2023-01-09T10:52:18.049Z,94.04
2023-01-09T10:54:51.246Z,93.65
2023-01-09T10:57:28.756Z,93.71
2023-01-09T10:59:57.673Z,91.72
2023-01-09T11:02:28.925Z,92.56
2023-01-09T11:04:56.436Z,92.55
2023-01-09T11:07:25.867Z,94.35
2023-01-09T11:09:57.655Z,93.27
2023-01-09T11:12:26.490Z,91.82
2023-01-09T11:14:54.002Z,91.63
2023-01-09T11:17:27.275Z,92.13
2023-01-09T11:20:14.991Z,94.19
2023-01-09T11:22:44.372Z,93.62
2023-01-09T11:25:14.443Z,94.68
2023-01-09T11:27:42.215Z,95.94
2023-01-09T11:30:21.158Z,94.38
2023-01-09T11:32:50.128Z,93.49
2023-01-09T11:35:23.645Z,93.53
2023-01-09T11:37:59.899Z,91.25
2023-01-09T11:40:27.583Z,91.81
2023-01-09T11:43:06.726Z,89.97
2023-01-09T11:45:35.834Z,91.89
2023-01-09T11:48:17.498Z,92.83
2023-01-09T11:50:54.707Z,92.31
2023-01-09T11:53:22.779Z,91.25
2023-01-09T11:56:06.872Z,92.07
2023-01-09T11:58:35.505Z,90.46
2023-01-09T12:01:12.734Z,91.04
2023-01-09T12:03:55.619Z,90.35
2023-01-09T12:06:31.418Z,89.31
2023-01-09T12:09:02.303Z,90.72
2023-01-09T12:11:34.154Z,91.57
2023-01-09T12:14:18.386Z,91.40
2023-01-09T12:16:59.236Z,91.85
2023-01-09T12:19:48.663Z,91.54
2023-01-09T12:22:23.768Z,91.52
2023-01-09T12:25:07.896Z,92.45
2023-01-09T12:27:49.968Z,91.12
2023-01-09T12:30:27.429Z,89.84
2023-01-09T12:33:04.483Z,90.26
2023-01-09T12:35:37.204Z,91.56
2023-01-09T12:38:23.782Z,91.66
2023-01-09T12:41:06.831Z,91.33
2023-01-09T12:43:40.544Z,91.28
2023-01-09T12:46:16.361Z,93.38
2023-01-09T12:48:59.218Z,92.21
2023-01-09T12:51:32.761Z,93.10
2023-01-09T12:54:03.289Z,93.55
2023-01-09T12:56:34.082Z,94.25
2023-01-09T12:59:02.932Z,96.26
2023-01-09T13:04:35.228Z,100.00
2023-01-09T13:07:07.246Z,100.00
2023-01-09T13:42:06.249Z,100.00
2023-01-09T13:44:37.570Z,100.00
2023-01-09T13:47:06.313Z,100.00
2023-01-09T13:50:21.977Z,100.00
2023-01-09T13:52:52.712Z,100.00
2023-01-09T13:55:27.099Z,100.00
2023-01-09T13:58:22.784Z,100.00
2023-01-09T14:01:04.441Z,100.00
2023-01-09T14:03:35.395Z,100.00
2023-01-09T14:06:24.459Z,100.00
2023-01-09T14:09:12.753Z,100.00
2023-01-09T14:11:42.082Z,100.00
2023-01-09T14:14:24.180Z,100.00
2023-01-09T14:16:51.915Z,100.00
2023-01-09T14:19:27.397Z,100.00
2023-01-09T14:21:56.788Z,100.00
2023-01-09T14:24:28.552Z,100.00
2023-01-09T14:26:58.000Z,100.00
2023-01-09T14:29:44.647Z,100.00
2023-01-09T14:32:46.332Z,100.00
2023-01-09T14:35:17.733Z,100.00
2023-01-09T14:37:57.375Z,100.00
2023-01-09T14:40:24.933Z,100.00
2023-01-09T14:42:55.066Z,100.00
2023-01-09T14:45:26.850Z,100.00
2023-01-09T14:47:56.546Z,100.00
2023-01-09T14:50:30.850Z,100.00
2023-01-09T14:53:03.831Z,100.00
2023-01-09T14:55:36.727Z,100.00
2023-01-09T14:58:19.208Z,100.00
2023-01-09T15:00:54.205Z,100.00
2023-01-09T15:03:22.405Z,100.00
2023-01-09T15:05:51.586Z,100.00
2023-01-09T15:08:21.603Z,100.00
2023-01-09T15:10:50.445Z,100.00
2023-01-09T15:13:32.672Z,100.00
2023-01-09T15:16:01.915Z,100.00
2023-01-09T15:18:31.653Z,100.00
2023-01-09T15:21:01.443Z,100.00
2023-01-09T15:23:30.354Z,100.00
2023-01-09T15:25:58.842Z,100.00
2023-01-09T15:28:30.623Z,100.00
2023-01-09T15:31:03.412Z,100.00
2023-01-09T15:33:30.959Z,100.00
2023-01-09T15:36:02.357Z,100.00
2023-01-09T15:38:32.442Z,100.00
2023-01-09T15:41:01.520Z,100.00
2023-01-09T15:43:30.423Z,100.00
2023-01-09T15:45:58.718Z,100.00
2023-01-09T15:48:29.731Z,100.00
2023-01-09T15:50:59.201Z,100.00
2023-01-09T15:53:28.225Z,100.00
2023-01-09T15:56:08.001Z,100.00
2023-01-09T15:58:36.929Z,100.00
2023-01-09T16:01:06.392Z,100.00
2023-01-09T16:03:37.367Z,100.00
2023-01-09T16:06:08.640Z,100.00
2023-01-09T16:08:38.302Z,100.00
2023-01-09T16:11:08.264Z,100.00
2023-01-09T16:13:43.060Z,100.00
2023-01-09T16:16:10.975Z,100.00
2023-01-09T16:18:40.597Z,100.00
2023-01-09T16:21:24.055Z,100.00
2023-01-09T16:23:57.343Z,100.00
2023-01-09T16:26:27.067Z,100.00
2023-01-09T16:28:55.227Z,100.00
2023-01-09T16:31:26.013Z,100.00
2023-01-09T16:34:04.295Z,100.00
2023-01-09T16:36:31.842Z,100.00
2023-01-09T16:39:00.768Z,100.00
2023-01-09T16:41:45.964Z,100.00
2023-01-09T16:44:13.453Z,100.00
2023-01-09T16:46:44.046Z,100.00
2023-01-09T16:49:20.629Z,100.00
2023-01-09T16:51:48.853Z,100.00
2023-01-09T16:54:16.770Z,100.00
2023-01-09T16:56:46.460Z,100.00
2023-01-09T16:59:14.878Z,100.00
2023-01-09T17:01:43.392Z,100.00
2023-01-09T17:04:12.120Z,100.00
2023-01-09T17:06:41.707Z,100.00
2023-01-09T17:09:12.323Z,100.00
2023-01-09T17:11:41.026Z,100.00
2023-01-09T17:14:09.783Z,100.00
2023-01-09T17:16:37.707Z,100.00
2023-01-09T17:19:05.842Z,100.00
2023-01-09T17:21:33.449Z,100.00
2023-01-09T17:24:19.896Z,100.00
2023-01-09T17:27:07.684Z,100.00
2023-01-09T17:29:35.603Z,100.00
2023-01-09T17:32:03.272Z,99.55
2023-01-09T17:34:30.816Z,98.47
2023-01-09T17:36:58.367Z,99.21
2023-01-09T17:39:27.252Z,99.00
2023-01-09T17:41:56.631Z,98.57
2023-01-09T17:44:24.111Z,99.32
2023-01-09T17:46:51.574Z,98.57
2023-01-09T17:49:21.261Z,98.41
2023-01-09T17:51:49.020Z,98.81
2023-01-09T17:54:16.666Z,99.15
2023-01-09T17:56:47.405Z,99.26
2023-01-09T17:59:15.949Z,99.53
2023-01-09T18:01:44.342Z,99.50
2023-01-09T18:04:12.246Z,100.00
2023-01-09T18:06:39.722Z,100.00
2023-01-09T18:09:07.809Z,100.00
2023-01-09T18:11:37.318Z,100.00
2023-01-09T18:14:07.006Z,100.00
2023-01-09T18:16:35.098Z,100.00
2023-01-09T18:19:03.313Z,100.00
2023-01-09T18:21:31.901Z,100.00
2023-01-09T18:24:01.271Z,100.00
2023-01-09T18:26:28.815Z,100.00
2023-01-09T18:28:58.049Z,100.00
2023-01-09T18:31:27.749Z,100.00
2023-01-09T18:33:57.039Z,100.00
2023-01-09T18:36:29.125Z,100.00
2023-01-09T18:38:57.415Z,100.00
2023-01-09T18:41:25.259Z,100.00
2023-01-09T18:43:54.023Z,100.00
2023-01-09T18:46:24.480Z,100.00
2023-01-09T18:48:54.050Z,100.00
2023-01-09T18:51:22.392Z,100.00
2023-01-09T18:53:50.091Z,100.00
2023-01-09T18:56:19.014Z,100.00
2023-01-09T18:58:46.728Z,100.00
2023-01-09T19:01:14.751Z,100.00
2023-01-09T19:03:42.505Z,100.00
2023-01-09T19:06:11.667Z,100.00
2023-01-09T19:08:39.202Z,100.00
2023-01-09T19:11:06.810Z,100.00
2023-01-09T19:13:35.621Z,100.00
2023-01-09T19:16:03.959Z,100.00
2023-01-09T19:18:33.890Z,100.00
2023-01-09T19:21:01.708Z,100.00
2023-01-09T19:23:30.560Z,100.00
2023-01-09T19:25:58.119Z,100.00
2023-01-09T19:28:25.666Z,100.00
2023-01-09T19:30:56.879Z,100.00
2023-01-09T19:33:25.205Z,100.00
2023-01-09T19:35:53.211Z,100.00
2023-01-09T19:38:22.372Z,100.00
2023-01-09T19:40:51.548Z,100.00
2023-01-09T19:43:26.533Z,100.00
2023-01-09T19:45:54.616Z,100.00
2023-01-09T19:48:22.213Z,100.00
2023-01-09T19:50:49.702Z,100.00
2023-01-09T19:53:17.295Z,100.00
2023-01-09T19:55:44.741Z,100.00
2023-01-09T19:58:13.523Z,100.00
2023-01-09T20:00:41.034Z,100.00
2023-01-09T20:03:08.475Z,100.00
2023-01-09T20:05:35.963Z,100.00
2023-01-09T20:08:06.221Z,100.00
2023-01-09T20:10:34.499Z,100.00
2023-01-09T20:13:02.110Z,100.00
2023-01-09T20:15:31.607Z,100.00
2023-01-09T20:17:59.690Z,100.00
2023-01-09T20:20:27.100Z,100.00
2023-01-09T20:22:54.546Z,100.00
2023-01-09T20:25:22.032Z,100.00
2023-01-09T20:27:49.527Z,100.00
2023-01-09T20:30:17.514Z,100.00
2023-01-09T20:32:49.223Z,100.00
2023-01-09T20:35:16.945Z,100.00
2023-01-09T20:37:44.419Z,100.00
2023-01-09T20:40:12.216Z,100.00
2023-01-09T20:42:39.709Z,100.00
2023-01-09T20:45:08.236Z,100.00
2023-01-09T20:47:35.749Z,100.00
2023-01-09T20:50:05.319Z,100.00
2023-01-09T20:52:32.856Z,100.00
2023-01-09T20:55:00.294Z,100.00
2023-01-09T20:57:27.882Z,100.00
2023-01-09T20:59:55.357Z,100.00
2023-01-09T21:02:22.851Z,100.00
2023-01-09T21:04:50.506Z,100.00
2023-01-09T21:07:19.354Z,100.00
2023-01-09T21:09:47.029Z,100.00
2023-01-09T21:12:28.483Z,100.00
2023-01-09T21:14:56.149Z,100.00
2023-01-09T21:17:24.058Z,100.00
2023-01-09T21:19:51.510Z,100.00
2023-01-09T21:22:20.477Z,100.00
2023-01-09T21:24:49.622Z,100.00
2023-01-09T21:27:17.149Z,100.00
2023-01-09T21:29:45.203Z,100.00
2023-01-09T21:32:12.765Z,100.00
2023-01-09T21:34:40.372Z,100.00
2023-01-09T21:37:07.931Z,100.00
2023-01-09T21:39:37.030Z,100.00
2023-01-09T21:42:22.535Z,100.00
2023-01-09T21:45:06.826Z,100.00
2023-01-09T21:47:34.385Z,100.00
2023-01-09T21:50:01.820Z,100.00
2023-01-09T21:52:29.261Z,100.00
2023-01-09T21:54:58.487Z,100.00
2023-01-09T21:57:25.910Z,100.00
2023-01-09T21:59:53.419Z,100.00
2023-01-09T22:02:20.876Z,100.00
2023-01-09T22:04:48.990Z,100.00
2023-01-09T22:07:16.650Z,100.00
2023-01-09T22:09:45.641Z,100.00
2023-01-09T22:12:15.106Z,100.00
2023-01-09T22:14:43.272Z,100.00
2023-01-09T22:17:11.702Z,100.00
2023-01-09T22:19:39.884Z,100.00
2023-01-09T22:22:08.639Z,100.00
2023-01-09T22:24:36.888Z,100.00
2023-01-09T22:27:05.354Z,100.00
2023-01-09T22:29:35.211Z,100.00
2023-01-09T22:32:03.628Z,100.00
2023-01-09T22:34:34.606Z,100.00
2023-01-09T22:37:03.026Z,100.00
2023-01-09T22:39:30.865Z,100.00
2023-01-09T22:41:59.078Z,100.00
2023-01-09T22:44:27.168Z,100.00
2023-01-09T22:46:57.252Z,100.00
2023-01-09T22:49:26.506Z,100.00
2023-01-09T22:51:57.844Z,100.00
2023-01-09T22:54:25.473Z,100.00
2023-01-09T22:56:53.405Z,100.00
2023-01-09T22:59:21.450Z,100.00
2023-01-09T23:01:49.231Z,100.00
2023-01-09T23:04:18.217Z,100.00
2023-01-09T23:06:46.197Z,100.00
2023-01-09T23:09:13.900Z,100.00
2023-01-09T23:12:04.188Z,100.00
2023-01-09T23:14:33.471Z,100.00
2023-01-09T23:17:01.041Z,100.00
2023-01-09T23:19:31.561Z,100.00
2023-01-09T23:21:59.994Z,100.00
2023-01-09T23:24:28.479Z,100.00
2023-01-09T23:26:56.627Z,100.00
2023-01-09T23:29:24.519Z,100.00
2023-01-09T23:31:53.648Z,100.00
2023-01-09T23:34:23.964Z,100.00
2023-01-09T23:36:54.252Z,100.00
2023-01-09T23:39:21.917Z,100.00
2023-01-09T23:42:06.918Z,100.00
2023-01-09T23:44:36.142Z,100.00
2023-01-09T23:47:03.670Z,100.00
2023-01-09T23:49:31.151Z,100.00
2023-01-09T23:52:01.609Z,100.00
2023-01-09T23:54:29.134Z,100.00
2023-01-09T23:56:56.638Z,100.00
2023-01-09T23:59:24.099Z,100.00
